Bowlus, MN

11:41 AM CDT on May 28, 2015 (GMT -0500)
Long Prairie | | Change Station
CLOSE
Current Station
Airport
Location: Long Prairie,
Elevation: 1332 ft
Nearby Weather Stations
Active Advisory: Flood Warning

Elev 1332 ft 45.90 °N, 94.87 °W | Updated 5 minutes ago

Partly Cloudy
Partly Cloudy
77 °F
Feels Like 77 °F
N
17
Wind Variable Wind from South
Gusts 24 mph

Today
High -- | Low -- °F
--% Chance of Precip.
Yesterday
High -- | Low -- °F
Precip. -- in
5:33 AM 8:56 PM
Waxing Gibbous, 77% visible
Pressure 30.00 in
Visibility 5.0 miles
Clouds Clear
Dew Point 54 °F
Humidity 44%
Rainfall 0.00 in
Snow Depth Not available.
UV 10 out of 12
Pollen 8.40 out of 12
Air Quality Not available.
Flu Activity Sporadic
METAR K14Y 281636Z AUTO 17015G21KT 5SM HZ CLR 25/12 A3000 RMK AO2

More Conditions Fewer Conditions

Pressure 30.00 in
Visibility 5.0 miles
Clouds Clear
Dew Point 54 °F
Humidity 44%
Rainfall 0.00 in
Snow Depth Not available.
UV 10 out of 12
Pollen 8.40 out of 12
Air Quality Not available.
Flu Activity Sporadic
METAR K14Y 281636Z AUTO 17015G21KT 5SM HZ CLR 25/12 A3000 RMK AO2

More Conditions Fewer Conditions

10-Day Weather Forecast

Almanac

Astronomy

May. 28, 2015 Rise Set
Actual Time
Civil Twilight
Nautical Twilight
Astronomical Twilight
Moon
Length of Visible Light
Length of Day
Tomorrow will be .
, % of the Moon is Illuminated

Today's Extremes

State Highs State Lows

Community

WunderPhotos

Upload Photos

1,825,004 photos uploaded!

WunderBlogs® & News

Nearby

Air Quality

  Air Quality AQ Index Pollutant
Not available.

Snow Depth

Station Depth Elevation

Earthquake Activity

City Distance Mag. Time & Date
Minimum magnitude displayed is 2.5.

Coastal Water Temperatures

Place Temperature

Stations

Nearby Weather Stations

Station Location Temp. Windchill Dew Point Humidity Wind Precip. Elev Updated Type
                   
Flood Warning
Statement as of 10:27 AM CDT on May 28, 2015

The Flood Warning continues for
the Mississippi River near Fort Ripley.
* At 9:00 am Thursday the stage was 10.3 feet.
* Flood stage is 10.0 feet.
* Minor flooding is occurring and minor flooding is forecast.
* At 11.0 feet... this will cause minor flooding of rural areas near
Fort Ripley..
this crest compares to a previous crest of 9.7 feet on Jun 15 2005.




Lat... Lon 4644 9420 4630 9420 4617 9423 4616 9440
      4626 9442